Pride Of Canterbury — MPQZ6 — position and weather

sailwx.info

Track history (hours):
 
Tides and Currents Weather Stations Pressure Air Temp Water Temp Dewpoint Dewpoint Depression Visibility Wind Speed Wind Dir Waves Ship Positions

Pride Of Canterbury

Operator: P & O Ferries

Last reported at 2017-Oct-20 19:30 UTC. Time now 2017-Oct-20 19:49 UTC.
Position N 51°01' E 001°38'.

Length 180 m; draft 5.7 m.

Type: Passenger vessel. MMSI: 232001060.

Date/timePositionNaut miles runAvg speedWind from/ knotsBaromVisibWave heightAir tempDewpointWater temp
2017-Oct-20 19:30N 51°01' E 001°38'917.1
2017-Oct-20 19:00N 50°58' E 001°51'1 1.2
2017-Oct-20 18:30N 50°58' E 001°52'3 5.5
2017-Oct-20 18:00N 50°58' E 001°47'816.5
2017-Oct-20 17:30N 51°01' E 001°35'918.4
2017-Oct-20 17:00N 51°06' E 001°23'2 1.6
2017-Oct-20 15:38N 51°07' E 001°20'0 0.9
2017-Oct-20 15:27N 51°07' E 001°20'3 7.2
2017-Oct-20 15:00N 51°07' E 001°25'1515.5
2017-Oct-20 14:01N 50°58' E 001°46'4 6.2
2017-Oct-20 13:25N 50°58' E 001°52'0 0.0
2017-Oct-20 12:56N 50°58' E 001°52'0 0.0
2017-Oct-20 12:28N 50°58' E 001°52'612.6
2017-Oct-20 12:01N 50°58' E 001°42'3 4.9
2017-Oct-20 11:29N 50°59' E 001°39'816.2
2017-Oct-20 11:00N 51°04' E 001°29'6 7.7
2017-Oct-20 10:11N 51°07' E 001°20'0 0.0
2017-Oct-20 09:56N 51°07' E 001°20'0 0.4
2017-Oct-20 09:30N 51°07' E 001°20'511.0
2017-Oct-20 09:00N 51°06' E 001°28'816.6
2017-Oct-20 08:30N 51°01' E 001°39'714.3
2017-Oct-20 08:00N 50°58' E 001°50'1 1.8
2017-Oct-20 07:30N 50°58' E 001°51'0 0.0
2017-Oct-20 07:00N 50°58' E 001°51'713.6
2017-Oct-20 06:31N 50°58' E 001°40'917.6
2017-Oct-20 06:01N 51°03' E 001°28'7 9.5
2017-Oct-20 05:17N 51°07' E 001°20'0 0.0
2017-Oct-20 04:34N 51°07' E 001°20'0 0.2
2017-Oct-20 04:28N 51°07' E 001°20'2 3.5
2017-Oct-20 04:00N 51°07' E 001°22'713.1
2017-Oct-20 03:30N 51°04' E 001°32'815.6
2017-Oct-20 03:00N 50°60' E 001°42'611.7
2017-Oct-20 02:30N 50°58' E 001°51'0 0.0
2017-Oct-20 02:00N 50°58' E 001°51'0 0.0
2017-Oct-20 01:30N 50°58' E 001°51'713.2
2017-Oct-20 01:00N 50°59' E 001°41'917.6
2017-Oct-20 00:30N 51°03' E 001°29'713.3
2017-Oct-19 23:59N 51°07' E 001°20'0 0.0
2017-Oct-19 23:30N 51°07' E 001°20'0 0.3
2017-Oct-19 23:00N 51°07' E 001°20'613.1
2017-Oct-19 22:30N 51°05' E 001°30'918.1
2017-Oct-19 22:00N 50°60' E 001°41'611.8
2017-Oct-19 21:29N 50°58' E 001°51'0 0.0
2017-Oct-19 21:00N 50°58' E 001°51'3 6.4
2017-Oct-19 20:30N 50°58' E 001°46'917.5
2017-Oct-19 20:01N 51°00' E 001°33'917.7
2017-Oct-19 19:31N 51°06' E 001°22'2 1.5
2017-Oct-19 18:23N 51°07' E 001°20'616.9
2017-Oct-19 18:00N 51°05' E 001°29'1019.3
2017-Oct-19 17:30N 50°59' E 001°42'611.6
2017-Oct-19 17:01N 50°58' E 001°51'0 0.0
2017-Oct-19 16:31N 50°58' E 001°51'3 6.2
2017-Oct-19 16:00N 50°58' E 001°46'917.7
2017-Oct-19 15:30N 51°01' E 001°33'918.5
2017-Oct-19 15:00N 51°07' E 001°21'1 1.2
2017-Oct-19 14:10N 51°07' E 001°20'0 0.0
2017-Oct-19 13:59N 51°07' E 001°20'510.2
2017-Oct-19 13:31N 51°06' E 001°28'918.1
2017-Oct-19 13:01N 51°01' E 001°40'815.1
2017-Oct-19 12:31N 50°58' E 001°51'0 0.4
2017-Oct-19 11:55N 50°58' E 001°51'0 0.4
2017-Oct-19 11:30N 50°58' E 001°51'918.5
2017-Oct-19 11:00N 50°59' E 001°36'918.1
2017-Oct-19 10:30N 51°05' E 001°26'4 3.5
2017-Oct-19 09:17N 51°07' E 001°20'2 6.4
2017-Oct-19 09:01N 51°07' E 001°23'918.8
2017-Oct-19 08:30N 51°02' E 001°35'918.3
2017-Oct-19 08:00N 50°58' E 001°49'1 2.9
2017-Oct-19 07:30N 50°58' E 001°51'0 0.0
2017-Oct-19 07:00N 50°58' E 001°51'713.2
2017-Oct-19 06:31N 50°59' E 001°41'917.5
2017-Oct-19 06:01N 51°03' E 001°28'713.9
2017-Oct-19 05:30N 51°07' E 001°20'0 0.0
2017-Oct-19 04:29N 51°07' E 001°20'3 7.3
2017-Oct-19 04:01N 51°06' E 001°25'918.0
2017-Oct-19 03:31N 51°01' E 001°37'917.7
2017-Oct-19 03:00N 50°58' E 001°50'1 1.4
2017-Oct-19 02:31N 50°58' E 001°51'0 0.0
2017-Oct-19 02:00N 50°58' E 001°51'0 0.0
2017-Oct-19 01:31N 50°58' E 001°51'5 9.9
2017-Oct-19 01:01N 50°58' E 001°43'1019.3
2017-Oct-19 00:31N 51°02' E 001°29'8 6.4
2017-Oct-18 23:17N 51°07' E 001°20'0 0.7
2017-Oct-18 23:00N 51°07' E 001°20'816.2
2017-Oct-18 22:30N 51°05' E 001°32'918.2
2017-Oct-18 22:01N 50°59' E 001°43'5 9.8
2017-Oct-18 21:30N 50°58' E 001°51'0 0.0
2017-Oct-18 21:00N 50°58' E 001°51'1 1.0
2017-Oct-18 20:28N 50°58' E 001°50'715.9
2017-Oct-18 20:01N 50°60' E 001°39'816.6
2017-Oct-18 19:30N 51°04' E 001°28'6 6.1
2017-Oct-18 18:34N 51°07' E 001°20'0 0.0
2017-Oct-18 18:17N 51°07' E 001°20'310.1
2017-Oct-18 18:00N 51°07' E 001°24'918.3
2017-Oct-18 17:30N 51°01' E 001°36'917.9
2017-Oct-18 17:00N 50°58' E 001°50'1 1.6
2017-Oct-18 16:30N 50°58' E 001°51'0 0.4
2017-Oct-18 15:58N 50°58' E 001°51'715.1
2017-Oct-18 15:31N 50°59' E 001°40'918.7
2017-Oct-18 15:00N 51°04' E 001°27'6 4.7
2017-Oct-18 13:50N 51°07' E 001°20'3 8.9
2017-Oct-18 13:30N 51°07' E 001°25'918.2
2017-Oct-18 13:00N 51°02' E 001°37'816.6
2017-Oct-18 12:30N 50°58' E 001°49'1 2.5
2017-Oct-18 11:58N 50°58' E 001°51'0 0.0
2017-Oct-18 11:29N 50°58' E 001°51'915.8
2017-Oct-18 10:54N 51°00' E 001°37'719.2
2017-Oct-18 10:30N 51°04' E 001°26'5 3.7
2017-Oct-18 09:08N 51°07' E 001°20'111.6
2017-Oct-18 09:00N 51°07' E 001°22'918.2
2017-Oct-18 08:30N 51°03' E 001°36'917.8
2017-Oct-18 08:01N 50°58' E 001°47'3 5.0
2017-Oct-18 07:30N 50°58' E 001°51'0 0.7
2017-Oct-18 06:55N 50°58' E 001°50'615.0
2017-Oct-18 06:30N 50°58' E 001°41'917.1
2017-Oct-18 06:00N 51°03' E 001°29'714.4
2017-Oct-18 05:30N 51°07' E 001°20'0 0.0
2017-Oct-18 04:20N 51°07' E 001°20'0 0.4
2017-Oct-18 03:58N 51°07' E 001°20'714.7
2017-Oct-18 03:31N 51°04' E 001°30'816.7
2017-Oct-18 03:01N 50°60' E 001°41'613.0
2017-Oct-18 02:31N 50°58' E 001°51'0 0.0
2017-Oct-18 01:57N 50°58' E 001°51'0 0.0
2017-Oct-18 01:28N 50°58' E 001°51'714.9
2017-Oct-18 01:00N 50°58' E 001°40'917.9
2017-Oct-18 00:30N 51°03' E 001°28'712.7
2017-Oct-17 23:58N 51°07' E 001°20'0 0.0
2017-Oct-17 23:08N 51°07' E 001°20'0 2.0
2017-Oct-17 22:59N 51°07' E 001°21'816.8
2017-Oct-17 22:30N 51°03' E 001°32'917.6
2017-Oct-17 22:00N 50°59' E 001°44'5 9.1
2017-Oct-17 21:30N 50°58' E 001°51'0 0.0
2017-Oct-17 21:00N 50°58' E 001°51'2 3.6
2017-Oct-17 20:30N 50°58' E 001°48'918.8
2017-Oct-17 20:00N 51°01' E 001°34'918.1
2017-Oct-17 19:30N 51°06' E 001°22'2 2.6
2017-Oct-17 18:47N 51°07' E 001°20'0 0.0
2017-Oct-17 18:29N 51°07' E 001°20'611.8
2017-Oct-17 18:00N 51°05' E 001°28'918.7
2017-Oct-17 17:31N 50°59' E 001°40'714.0
2017-Oct-17 17:00N 50°58' E 001°51'0 0.0
2017-Oct-17 16:30N 50°58' E 001°51'0 0.7
2017-Oct-17 16:00N 50°58' E 001°51'816.1
2017-Oct-17 15:30N 50°59' E 001°38'918.9
2017-Oct-17 15:00N 51°04' E 001°26'5 9.2
2017-Oct-17 14:30N 51°07' E 001°20'0 0.2
2017-Oct-17 13:53N 51°07' E 001°20'615.1
2017-Oct-17 13:31N 51°07' E 001°29'917.9
2017-Oct-17 13:00N 51°01' E 001°41'714.4
2017-Oct-17 12:30N 50°58' E 001°51'0 0.2
2017-Oct-17 12:00N 50°58' E 001°51'1 2.2
2017-Oct-17 11:29N 50°58' E 001°49'918.9
2017-Oct-17 10:59N 51°00' E 001°35'715.0
2017-Oct-17 10:31N 51°05' E 001°26'4 7.2
2017-Oct-17 09:55N 51°07' E 001°20'0 0.2
2017-Oct-17 09:22N 51°07' E 001°20'514.2
2017-Oct-17 09:00N 51°06' E 001°28'917.3
2017-Oct-17 08:30N 51°01' E 001°39'714.9
2017-Oct-17 08:01N 50°58' E 001°50'1 1.4
2017-Oct-17 07:30N 50°58' E 001°51'0 0.2
2017-Oct-17 07:00N 50°58' E 001°51'714.3
2017-Oct-17 06:31N 50°59' E 001°40'918.1
2017-Oct-17 06:01N 51°05' E 001°29'610.2
2017-Oct-17 05:25N 51°07' E 001°20'0 0.0
2017-Oct-17 04:47N 51°07' E 001°20'0 0.0
2017-Oct-17 04:30N 51°07' E 001°20'2 4.7
2017-Oct-17 04:00N 51°07' E 001°24'714.6
2017-Oct-17 03:30N 51°03' E 001°34'715.0
2017-Oct-17 03:01N 50°59' E 001°43'5 9.7
2017-Oct-17 02:30N 50°58' E 001°51'0 0.0
2017-Oct-17 02:00N 50°58' E 001°51'0 0.0
2017-Oct-17 01:29N 50°58' E 001°51'0 0.0
2017-Oct-17 00:59N 50°58' E 001°51'0 0.0
2017-Oct-17 00:30N 50°58' E 001°51'0 1.0
2017-Oct-17 00:00N 50°58' E 001°52'0 0.0
2017-Oct-16 23:30N 50°58' E 001°52'0 0.0
2017-Oct-16 23:00N 50°58' E 001°52'0 0.0
2017-Oct-16 22:30N 50°58' E 001°52'0 0.0
2017-Oct-16 22:00N 50°58' E 001°52'0 0.3
2017-Oct-16 21:30N 50°58' E 001°52'0 0.8
2017-Oct-16 21:00N 50°58' E 001°51'510.3
2017-Oct-16 20:30N 50°58' E 001°43'918.2
2017-Oct-16 20:00N 51°02' E 001°30'816.5
2017-Oct-16 19:30N 51°07' E 001°20'0 0.1
2017-Oct-16 18:54N 51°07' E 001°20'2 4.0
2017-Oct-16 18:30N 51°07' E 001°22'917.3
2017-Oct-16 18:01N 51°04' E 001°35'917.5
2017-Oct-16 17:31N 50°58' E 001°46'3 6.5
2017-Oct-16 16:59N 50°58' E 001°51'0 0.0
2017-Oct-16 16:30N 50°58' E 001°51'4 7.7
2017-Oct-16 16:00N 50°58' E 001°45'816.8
2017-Oct-16 15:30N 51°01' E 001°33'917.8
2017-Oct-16 15:00N 51°06' E 001°21'1 1.5
2017-Oct-16 14:09N 51°07' E 001°20'5 8.0
2017-Oct-16 13:30N 51°06' E 001°28'918.3
2017-Oct-16 13:00N 51°01' E 001°40'714.8
2017-Oct-16 12:31N 50°58' E 001°51'1 1.1
2017-Oct-16 12:00N 50°58' E 001°52'0 0.2
2017-Oct-16 11:31N 50°58' E 001°51'815.8
2017-Oct-16 11:00N 50°58' E 001°39'917.8
2017-Oct-16 10:30N 51°03' E 001°27'6 6.3
2017-Oct-16 09:34N 51°07' E 001°20'0 0.0
2017-Oct-16 09:26N 51°07' E 001°20'3 8.1
2017-Oct-16 09:00N 51°07' E 001°25'917.9
2017-Oct-16 08:30N 51°02' E 001°37'816.1
2017-Oct-16 08:00N 50°58' E 001°49'1 2.8
2017-Oct-16 07:30N 50°58' E 001°51'0 0.1
2017-Oct-16 07:00N 50°58' E 001°51'715.1
2017-Oct-16 06:30N 50°59' E 001°39'816.6
2017-Oct-16 06:01N 51°04' E 001°28'6 3.8
2017-Oct-16 04:19N 51°07' E 001°20'411.4
2017-Oct-16 04:00N 51°06' E 001°25'816.5
2017-Oct-16 03:31N 51°01' E 001°36'714.9
2017-Oct-16 03:00N 50°58' E 001°46'3 6.1
2017-Oct-16 02:30N 50°58' E 001°51'0 0.0
2017-Oct-16 02:00N 50°58' E 001°51'0 0.0
2017-Oct-16 01:30N 50°58' E 001°51'3 5.6
2017-Oct-16 01:00N 50°58' E 001°47'915.9
2017-Oct-16 00:27N 51°02' E 001°34'817.8
2017-Oct-16 00:00N 51°06' E 001°24'3 4.6
2017-Oct-15 23:27N 51°07' E 001°20'0 0.4
2017-Oct-15 22:59N 51°07' E 001°20'715.5
2017-Oct-15 22:31N 51°04' E 001°31'917.8
2017-Oct-15 22:01N 50°59' E 001°43'510.8
2017-Oct-15 21:30N 50°58' E 001°51'0 0.0
2017-Oct-15 21:00N 50°58' E 001°51'0 0.1
2017-Oct-15 20:30N 50°58' E 001°51'815.9
2017-Oct-15 20:01N 50°59' E 001°39'917.8
2017-Oct-15 19:30N 51°04' E 001°26'5 9.2
2017-Oct-15 18:56N 51°07' E 001°20'0 0.1
2017-Oct-15 18:24N 51°07' E 001°20'512.2
2017-Oct-15 18:00N 51°06' E 001°27'917.2
2017-Oct-15 17:30N 51°01' E 001°39'815.6
2017-Oct-15 17:01N 50°58' E 001°50'0 0.8
2017-Oct-15 16:29N 50°58' E 001°51'0 0.8
2017-Oct-15 15:59N 50°58' E 001°51'815.7
2017-Oct-15 15:30N 50°59' E 001°39'816.5
2017-Oct-15 15:01N 51°04' E 001°28'6 5.4
2017-Oct-15 13:56N 51°07' E 001°20'4 9.6
2017-Oct-15 13:30N 51°06' E 001°26'816.3
2017-Oct-15 13:00N 51°01' E 001°37'815.6
2017-Oct-15 12:30N 50°58' E 001°48'2 3.7
2017-Oct-15 12:00N 50°58' E 001°51'1 1.5
2017-Oct-15 11:26N 50°59' E 001°50'816.8
2017-Oct-15 10:59N 50°59' E 001°38'816.2
2017-Oct-15 10:30N 51°04' E 001°28'6 8.2
2017-Oct-15 09:47N 51°07' E 001°20'0 0.3
2017-Oct-15 09:23N 51°07' E 001°20'513.8
2017-Oct-15 09:00N 51°07' E 001°29'816.9
2017-Oct-15 08:31N 51°03' E 001°40'714.5
2017-Oct-15 08:00N 50°58' E 001°49'1 2.1
2017-Oct-15 07:30N 50°58' E 001°51'0 0.4
2017-Oct-15 07:00N 50°58' E 001°51'714.2
2017-Oct-15 06:30N 50°59' E 001°40'816.2
2017-Oct-15 06:01N 51°03' E 001°29'713.5
2017-Oct-15 05:30N 51°07' E 001°20'0 0.0
2017-Oct-15 05:00N 51°07' E 001°20'0 0.0
2017-Oct-15 04:30N 51°07' E 001°20'0 0.0
2017-Oct-15 04:00N 51°07' E 001°20'510.3
2017-Oct-15 03:31N 51°05' E 001°28'918.8
2017-Oct-15 03:01N 51°00' E 001°40'714.9
2017-Oct-15 02:30N 50°58' E 001°51'0 0.1
2017-Oct-15 02:01N 50°58' E 001°51'0 0.0
2017-Oct-15 01:30N 50°58' E 001°51'3 6.0
2017-Oct-15 01:01N 50°58' E 001°47'815.5
2017-Oct-15 00:31N 50°60' E 001°35'815.9
2017-Oct-15 00:01N 51°05' E 001°26'4 6.6
2017-Oct-14 23:24N 51°07' E 001°20'0 0.1
2017-Oct-14 23:00N 51°07' E 001°20'612.6
2017-Oct-14 22:30N 51°05' E 001°29'816.7
2017-Oct-14 22:01N 51°01' E 001°41'713.7
2017-Oct-14 21:30N 50°58' E 001°51'0 0.1
2017-Oct-14 21:00N 50°58' E 001°51'1 1.3
2017-Oct-14 20:30N 50°58' E 001°50'918.1
2017-Oct-14 20:00N 51°00' E 001°36'918.7
2017-Oct-14 19:30N 51°06' E 001°24'3 5.6
2017-Oct-14 18:59N 51°07' E 001°20'2 3.3
2017-Oct-14 18:30N 51°07' E 001°22'918.3
2017-Oct-14 18:00N 51°02' E 001°35'917.4
2017-Oct-14 17:30N 50°58' E 001°47'2 4.6
2017-Oct-14 16:59N 50°58' E 001°51'0 0.0
2017-Oct-14 16:30N 50°58' E 001°51'612.2
2017-Oct-14 16:00N 50°58' E 001°41'816.6
2017-Oct-14 15:30N 51°02' E 001°29'8 5.6
2017-Oct-14 14:07N 51°07' E 001°20'1 9.8
2017-Oct-14 14:00N 51°07' E 001°22'917.4
2017-Oct-14 13:30N 51°03' E 001°34'918.5
2017-Oct-14 13:00N 50°58' E 001°47'3 6.4
2017-Oct-14 12:30N 50°58' E 001°52'0 0.0
2017-Oct-14 12:00N 50°58' E 001°52'2 3.7
2017-Oct-14 11:28N 50°58' E 001°49'816.3
2017-Oct-14 11:00N 51°00' E 001°37'918.2
2017-Oct-14 10:30N 51°05' E 001°25'4 5.8
2017-Oct-14 09:52N 51°07' E 001°20'0 0.0
2017-Oct-14 09:22N 51°07' E 001°20'411.1
2017-Oct-14 09:01N 51°07' E 001°26'917.4
2017-Oct-14 08:30N 51°02' E 001°38'816.1
2017-Oct-14 08:00N 50°58' E 001°49'1 2.3
2017-Oct-14 07:29N 50°58' E 001°51'0 0.2
2017-Oct-14 06:57N 50°58' E 001°51'716.3
2017-Oct-14 06:30N 50°59' E 001°39'816.7
2017-Oct-14 06:00N 51°03' E 001°28'710.0
2017-Oct-14 05:21N 51°07' E 001°20'0 0.0
2017-Oct-14 04:59N 51°07' E 001°20'0 0.2
2017-Oct-14 04:10N 51°07' E 001°20'211.0
2017-Oct-14 04:01N 51°07' E 001°23'917.6
2017-Oct-14 03:31N 51°02' E 001°35'816.5
2017-Oct-14 03:01N 50°58' E 001°46'3 5.2
2017-Oct-14 02:25N 50°58' E 001°51'0 0.0
2017-Oct-14 02:00N 50°58' E 001°51'0 0.0
2017-Oct-14 01:30N 50°58' E 001°51'611.8
2017-Oct-14 01:00N 50°58' E 001°42'815.6
2017-Oct-14 00:30N 51°03' E 001°32'714.2
2017-Oct-14 00:00N 51°07' E 001°22'2 2.9
2017-Oct-13 23:27N 51°07' E 001°20'0 0.4
2017-Oct-13 23:00N 51°07' E 001°20'816.5
2017-Oct-13 22:31N 51°04' E 001°32'917.4
2017-Oct-13 22:00N 50°59' E 001°43'5 7.3
2017-Oct-13 21:21N 50°58' E 001°51'0 0.0
2017-Oct-13 21:00N 50°58' E 001°51'2 4.0
2017-Oct-13 20:30N 50°58' E 001°48'918.6
2017-Oct-13 20:00N 51°00' E 001°33'917.8
2017-Oct-13 19:30N 51°06' E 001°23'2 3.9
2017-Oct-13 18:57N 51°07' E 001°20'1 3.2
2017-Oct-13 18:30N 51°07' E 001°22'816.4
2017-Oct-13 18:00N 51°04' E 001°34'917.3
2017-Oct-13 17:30N 50°58' E 001°45'4 8.5
2017-Oct-13 16:59N 50°58' E 001°52'0 0.0
2017-Oct-13 16:25N 50°58' E 001°52'3 7.2
2017-Oct-13 16:00N 50°58' E 001°47'918.5
2017-Oct-13 15:30N 51°02' E 001°33'918.1
2017-Oct-13 15:00N 51°06' E 001°21'1 2.0
2017-Oct-13 14:25N 51°07' E 001°20'0 0.3
2017-Oct-13 13:55N 51°07' E 001°20'614.4
2017-Oct-13 13:31N 51°05' E 001°29'918.2
2017-Oct-13 13:01N 50°60' E 001°41'711.5
2017-Oct-13 12:25N 50°58' E 001°51'0 0.0
2017-Oct-13 11:53N 50°58' E 001°51'1 3.8
2017-Oct-13 11:31N 50°58' E 001°49'816.4
2017-Oct-13 11:00N 50°60' E 001°36'918.0
2017-Oct-13 10:30N 51°05' E 001°24'3 2.9
2017-Oct-13 09:18N 51°07' E 001°20'413.6
2017-Oct-13 09:00N 51°06' E 001°26'816.8
2017-Oct-13 08:30N 51°02' E 001°38'816.2
2017-Oct-13 08:00N 50°58' E 001°49'1 2.1
2017-Oct-13 07:30N 50°58' E 001°51'0 0.0
2017-Oct-13 07:00N 50°58' E 001°51'510.0
2017-Oct-13 06:30N 50°58' E 001°43'1018.9
2017-Oct-13 06:00N 51°03' E 001°30'8 6.4
2017-Oct-13 04:49N 51°07' E 001°20'0 0.0
2017-Oct-13 04:30N 51°07' E 001°20'510.1
2017-Oct-13 04:00N 51°07' E 001°28'816.7
2017-Oct-13 03:30N 51°01' E 001°38'816.2
2017-Oct-13 03:01N 50°58' E 001°50'1 1.8
2017-Oct-13 02:31N 50°58' E 001°51'0 0.0
2017-Oct-13 02:01N 50°58' E 001°51'0 0.0
2017-Oct-13 01:31N 50°58' E 001°51'4 9.0
2017-Oct-13 01:00N 50°58' E 001°44'816.0
2017-Oct-13 00:30N 51°01' E 001°33'917.3
2017-Oct-13 00:00N 51°07' E 001°22'1 2.1
2017-Oct-12 23:26N 51°07' E 001°20'0 0.8
2017-Oct-12 23:00N 51°07' E 001°21'918.2
2017-Oct-12 22:30N 51°03' E 001°33'1019.2
2017-Oct-12 22:00N 50°58' E 001°46'3 5.2
2017-Oct-12 21:26N 50°58' E 001°51'0 0.0
2017-Oct-12 20:59N 50°58' E 001°51'613.0
2017-Oct-12 20:30N 50°58' E 001°41'918.6
2017-Oct-12 20:01N 51°04' E 001°30'7 8.1
2017-Oct-12 19:10N 51°07' E 001°20'0 0.0
2017-Oct-12 19:00N 51°07' E 001°20'2 4.8
2017-Oct-12 18:30N 51°07' E 001°24'917.8
2017-Oct-12 18:00N 51°03' E 001°36'816.9
2017-Oct-12 17:30N 50°58' E 001°48'3 4.9
2017-Oct-12 17:00N 50°58' E 001°52'0 0.0
2017-Oct-12 16:30N 50°58' E 001°52'713.1
2017-Oct-12 16:00N 50°59' E 001°41'918.0
2017-Oct-12 15:30N 51°04' E 001°29'710.3
2017-Oct-12 14:50N 51°07' E 001°20'0 0.0
2017-Oct-12 14:27N 51°07' E 001°20'0 0.5
2017-Oct-12 14:00N 51°07' E 001°20'815.5
2017-Oct-12 13:30N 51°04' E 001°31'918.4
2017-Oct-12 13:00N 50°59' E 001°43'5 8.2
2017-Oct-12 12:24N 50°58' E 001°51'0 0.0
2017-Oct-12 12:01N 50°58' E 001°51'2 3.4
2017-Oct-12 11:30N 50°58' E 001°48'816.2
2017-Oct-12 11:00N 50°59' E 001°36'918.2
2017-Oct-12 10:30N 51°05' E 001°25'4 5.0
2017-Oct-12 09:45N 51°07' E 001°20'0 0.0
2017-Oct-12 09:25N 51°07' E 001°20'4 9.3
2017-Oct-12 09:01N 51°06' E 001°26'917.8
2017-Oct-12 08:31N 51°01' E 001°38'816.6
2017-Oct-12 08:00N 50°58' E 001°50'1 1.5
2017-Oct-12 07:30N 50°58' E 001°51'0 0.7
2017-Oct-12 06:55N 50°58' E 001°50'614.7
2017-Oct-12 06:31N 50°59' E 001°41'918.4
2017-Oct-12 06:01N 51°04' E 001°29'7 4.4
2017-Oct-12 04:31N 51°07' E 001°20'611.7
2017-Oct-12 04:00N 51°05' E 001°29'816.7
2017-Oct-12 03:30N 51°01' E 001°40'714.2
2017-Oct-12 03:01N 50°58' E 001°50'0 0.9
2017-Oct-12 02:28N 50°58' E 001°51'0 0.3
2017-Oct-12 01:58N 50°58' E 001°51'817.5
2017-Oct-12 01:30N 50°58' E 001°38'917.9
2017-Oct-12 01:00N 51°04' E 001°27'610.0
2017-Oct-12 00:26N 51°07' E 001°20'0 0.0
2017-Oct-11 23:59N 51°07' E 001°20'5 9.6
2017-Oct-11 23:30N 51°06' E 001°27'917.3
2017-Oct-11 23:00N 51°01' E 001°38'816.3
2017-Oct-11 22:31N 50°58' E 001°50'0 0.8
2017-Oct-11 22:00N 50°58' E 001°51'0 0.0
2017-Oct-11 21:30N 50°58' E 001°51'612.9
2017-Oct-11 21:00N 50°58' E 001°41'917.4
2017-Oct-11 20:30N 51°02' E 001°28'714.0
2017-Oct-11 19:59N 51°07' E 001°20'0 0.0
2017-Oct-11 19:16N 51°07' E 001°20'2 5.6
2017-Oct-11 19:00N 51°07' E 001°22'816.9
2017-Oct-11 18:30N 51°03' E 001°34'917.3
2017-Oct-11 18:01N 50°58' E 001°45'4 5.9
2017-Oct-11 17:24N 50°58' E 001°51'0 0.0
2017-Oct-11 16:59N 50°58' E 001°51'0 0.0
2017-Oct-11 00:00N 50°58' E 001°51'0 0.0
2017-Oct-10 23:30N 50°58' E 001°51'0 0.0
2017-Oct-10 23:00N 50°58' E 001°51'0 0.0
2017-Oct-10 22:26N 50°58' E 001°51'2 5.0
2017-Oct-10 22:00N 50°58' E 001°48'815.9
2017-Oct-10 21:31N 50°59' E 001°35'917.9
2017-Oct-10 21:00N 51°05' E 001°24'3 3.4
2017-Oct-10 19:58N 51°07' E 001°20'  
Track history (hours):
 
Tides and Currents Weather Stations Pressure Air Temp Water Temp Dewpoint Dewpoint Depression Visibility Wind Speed Wind Dir Waves Ship Positions

Pride Of Canterbury

Operator: P & O Ferries

Last reported at 2017-Oct-20 19:30 UTC. Time now 2017-Oct-20 19:49 UTC.
Position N 51°01' E 001°38'.

Length 180 m; draft 5.7 m.

Type: Passenger vessel. MMSI: 232001060.

Date/timePositionNaut miles runAvg speedWind from/ knotsBaromVisibWave heightAir tempDewpointWater temp
2017-Oct-20 19:30N 51°01' E 001°38'917.1
2017-Oct-20 19:00N 50°58' E 001°51'1 1.2
2017-Oct-20 18:30N 50°58' E 001°52'3 5.5
2017-Oct-20 18:00N 50°58' E 001°47'816.5
2017-Oct-20 17:30N 51°01' E 001°35'918.4
2017-Oct-20 17:00N 51°06' E 001°23'2 1.6
2017-Oct-20 15:38N 51°07' E 001°20'0 0.9
2017-Oct-20 15:27N 51°07' E 001°20'3 7.2
2017-Oct-20 15:00N 51°07' E 001°25'1515.5
2017-Oct-20 14:01N 50°58' E 001°46'4 6.2
2017-Oct-20 13:25N 50°58' E 001°52'0 0.0
2017-Oct-20 12:56N 50°58' E 001°52'0 0.0
2017-Oct-20 12:28N 50°58' E 001°52'612.6
2017-Oct-20 12:01N 50°58' E 001°42'3 4.9
2017-Oct-20 11:29N 50°59' E 001°39'816.2
2017-Oct-20 11:00N 51°04' E 001°29'6 7.7
2017-Oct-20 10:11N 51°07' E 001°20'0 0.0
2017-Oct-20 09:56N 51°07' E 001°20'0 0.4
2017-Oct-20 09:30N 51°07' E 001°20'511.0
2017-Oct-20 09:00N 51°06' E 001°28'816.6
2017-Oct-20 08:30N 51°01' E 001°39'714.3
2017-Oct-20 08:00N 50°58' E 001°50'1 1.8
2017-Oct-20 07:30N 50°58' E 001°51'0 0.0
2017-Oct-20 07:00N 50°58' E 001°51'713.6
2017-Oct-20 06:31N 50°58' E 001°40'917.6
2017-Oct-20 06:01N 51°03' E 001°28'7 9.5
2017-Oct-20 05:17N 51°07' E 001°20'0 0.0
2017-Oct-20 04:34N 51°07' E 001°20'0 0.2
2017-Oct-20 04:28N 51°07' E 001°20'2 3.5
2017-Oct-20 04:00N 51°07' E 001°22'713.1
2017-Oct-20 03:30N 51°04' E 001°32'815.6
2017-Oct-20 03:00N 50°60' E 001°42'611.7
2017-Oct-20 02:30N 50°58' E 001°51'0 0.0
2017-Oct-20 02:00N 50°58' E 001°51'0 0.0
2017-Oct-20 01:30N 50°58' E 001°51'713.2
2017-Oct-20 01:00N 50°59' E 001°41'917.6
2017-Oct-20 00:30N 51°03' E 001°29'713.3
2017-Oct-19 23:59N 51°07' E 001°20'0 0.0
2017-Oct-19 23:30N 51°07' E 001°20'0 0.3
2017-Oct-19 23:00N 51°07' E 001°20'613.1
2017-Oct-19 22:30N 51°05' E 001°30'918.1
2017-Oct-19 22:00N 50°60' E 001°41'611.8
2017-Oct-19 21:29N 50°58' E 001°51'0 0.0
2017-Oct-19 21:00N 50°58' E 001°51'3 6.4
2017-Oct-19 20:30N 50°58' E 001°46'917.5
2017-Oct-19 20:01N 51°00' E 001°33'917.7
2017-Oct-19 19:31N 51°06' E 001°22'2 1.5
2017-Oct-19 18:23N 51°07' E 001°20'616.9
2017-Oct-19 18:00N 51°05' E 001°29'1019.3
2017-Oct-19 17:30N 50°59' E 001°42'611.6
2017-Oct-19 17:01N 50°58' E 001°51'0 0.0
2017-Oct-19 16:31N 50°58' E 001°51'3 6.2
2017-Oct-19 16:00N 50°58' E 001°46'917.7
2017-Oct-19 15:30N 51°01' E 001°33'918.5
2017-Oct-19 15:00N 51°07' E 001°21'1 1.2
2017-Oct-19 14:10N 51°07' E 001°20'0 0.0
2017-Oct-19 13:59N 51°07' E 001°20'510.2
2017-Oct-19 13:31N 51°06' E 001°28'918.1
2017-Oct-19 13:01N 51°01' E 001°40'815.1
2017-Oct-19 12:31N 50°58' E 001°51'0 0.4
2017-Oct-19 11:55N 50°58' E 001°51'0 0.4
2017-Oct-19 11:30N 50°58' E 001°51'918.5
2017-Oct-19 11:00N 50°59' E 001°36'918.1
2017-Oct-19 10:30N 51°05' E 001°26'4 3.5
2017-Oct-19 09:17N 51°07' E 001°20'2 6.4
2017-Oct-19 09:01N 51°07' E 001°23'918.8
2017-Oct-19 08:30N 51°02' E 001°35'918.3
2017-Oct-19 08:00N 50°58' E 001°49'1 2.9
2017-Oct-19 07:30N 50°58' E 001°51'0 0.0
2017-Oct-19 07:00N 50°58' E 001°51'713.2
2017-Oct-19 06:31N 50°59' E 001°41'917.5
2017-Oct-19 06:01N 51°03' E 001°28'713.9
2017-Oct-19 05:30N 51°07' E 001°20'0 0.0
2017-Oct-19 04:29N 51°07' E 001°20'3 7.3
2017-Oct-19 04:01N 51°06' E 001°25'918.0
2017-Oct-19 03:31N 51°01' E 001°37'917.7
2017-Oct-19 03:00N 50°58' E 001°50'1 1.4
2017-Oct-19 02:31N 50°58' E 001°51'0 0.0
2017-Oct-19 02:00N 50°58' E 001°51'0 0.0
2017-Oct-19 01:31N 50°58' E 001°51'5 9.9
2017-Oct-19 01:01N 50°58' E 001°43'1019.3
2017-Oct-19 00:31N 51°02' E 001°29'8 6.4
2017-Oct-18 23:17N 51°07' E 001°20'0 0.7
2017-Oct-18 23:00N 51°07' E 001°20'816.2
2017-Oct-18 22:30N 51°05' E 001°32'918.2
2017-Oct-18 22:01N 50°59' E 001°43'5 9.8
2017-Oct-18 21:30N 50°58' E 001°51'0 0.0
2017-Oct-18 21:00N 50°58' E 001°51'1 1.0
2017-Oct-18 20:28N 50°58' E 001°50'715.9
2017-Oct-18 20:01N 50°60' E 001°39'816.6
2017-Oct-18 19:30N 51°04' E 001°28'6 6.1
2017-Oct-18 18:34N 51°07' E 001°20'0 0.0
2017-Oct-18 18:17N 51°07' E 001°20'310.1
2017-Oct-18 18:00N 51°07' E 001°24'918.3
2017-Oct-18 17:30N 51°01' E 001°36'917.9
2017-Oct-18 17:00N 50°58' E 001°50'1 1.6
2017-Oct-18 16:30N 50°58' E 001°51'0 0.4
2017-Oct-18 15:58N 50°58' E 001°51'715.1
2017-Oct-18 15:31N 50°59' E 001°40'918.7
2017-Oct-18 15:00N 51°04' E 001°27'6 4.7
2017-Oct-18 13:50N 51°07' E 001°20'3 8.9
2017-Oct-18 13:30N 51°07' E 001°25'918.2
2017-Oct-18 13:00N 51°02' E 001°37'816.6
2017-Oct-18 12:30N 50°58' E 001°49'1 2.5
2017-Oct-18 11:58N 50°58' E 001°51'0 0.0
2017-Oct-18 11:29N 50°58' E 001°51'915.8
2017-Oct-18 10:54N 51°00' E 001°37'719.2
2017-Oct-18 10:30N 51°04' E 001°26'5 3.7
2017-Oct-18 09:08N 51°07' E 001°20'111.6
2017-Oct-18 09:00N 51°07' E 001°22'918.2
2017-Oct-18 08:30N 51°03' E 001°36'917.8
2017-Oct-18 08:01N 50°58' E 001°47'3 5.0
2017-Oct-18 07:30N 50°58' E 001°51'0 0.7
2017-Oct-18 06:55N 50°58' E 001°50'615.0
2017-Oct-18 06:30N 50°58' E 001°41'917.1
2017-Oct-18 06:00N 51°03' E 001°29'714.4
2017-Oct-18 05:30N 51°07' E 001°20'0 0.0
2017-Oct-18 04:20N 51°07' E 001°20'0 0.4
2017-Oct-18 03:58N 51°07' E 001°20'714.7
2017-Oct-18 03:31N 51°04' E 001°30'816.7
2017-Oct-18 03:01N 50°60' E 001°41'613.0
2017-Oct-18 02:31N 50°58' E 001°51'0 0.0
2017-Oct-18 01:57N 50°58' E 001°51'0 0.0
2017-Oct-18 01:28N 50°58' E 001°51'714.9
2017-Oct-18 01:00N 50°58' E 001°40'917.9
2017-Oct-18 00:30N 51°03' E 001°28'712.7
2017-Oct-17 23:58N 51°07' E 001°20'0 0.0
2017-Oct-17 23:08N 51°07' E 001°20'0 2.0
2017-Oct-17 22:59N 51°07' E 001°21'816.8
2017-Oct-17 22:30N 51°03' E 001°32'917.6
2017-Oct-17 22:00N 50°59' E 001°44'5 9.1
2017-Oct-17 21:30N 50°58' E 001°51'0 0.0
2017-Oct-17 21:00N 50°58' E 001°51'2 3.6
2017-Oct-17 20:30N 50°58' E 001°48'918.8
2017-Oct-17 20:00N 51°01' E 001°34'918.1
2017-Oct-17 19:30N 51°06' E 001°22'2 2.6
2017-Oct-17 18:47N 51°07' E 001°20'0 0.0
2017-Oct-17 18:29N 51°07' E 001°20'611.8
2017-Oct-17 18:00N 51°05' E 001°28'918.7
2017-Oct-17 17:31N 50°59' E 001°40'714.0
2017-Oct-17 17:00N 50°58' E 001°51'0 0.0
2017-Oct-17 16:30N 50°58' E 001°51'0 0.7
2017-Oct-17 16:00N 50°58' E 001°51'816.1
2017-Oct-17 15:30N 50°59' E 001°38'918.9
2017-Oct-17 15:00N 51°04' E 001°26'5 9.2
2017-Oct-17 14:30N 51°07' E 001°20'0 0.2
2017-Oct-17 13:53N 51°07' E 001°20'615.1
2017-Oct-17 13:31N 51°07' E 001°29'917.9
2017-Oct-17 13:00N 51°01' E 001°41'714.4
2017-Oct-17 12:30N 50°58' E 001°51'0 0.2
2017-Oct-17 12:00N 50°58' E 001°51'1 2.2
2017-Oct-17 11:29N 50°58' E 001°49'918.9
2017-Oct-17 10:59N 51°00' E 001°35'715.0
2017-Oct-17 10:31N 51°05' E 001°26'4 7.2
2017-Oct-17 09:55N 51°07' E 001°20'0 0.2
2017-Oct-17 09:22N 51°07' E 001°20'514.2
2017-Oct-17 09:00N 51°06' E 001°28'917.3
2017-Oct-17 08:30N 51°01' E 001°39'714.9
2017-Oct-17 08:01N 50°58' E 001°50'1 1.4
2017-Oct-17 07:30N 50°58' E 001°51'0 0.2
2017-Oct-17 07:00N 50°58' E 001°51'714.3
2017-Oct-17 06:31N 50°59' E 001°40'918.1
2017-Oct-17 06:01N 51°05' E 001°29'610.2
2017-Oct-17 05:25N 51°07' E 001°20'0 0.0
2017-Oct-17 04:47N 51°07' E 001°20'0 0.0
2017-Oct-17 04:30N 51°07' E 001°20'2 4.7
2017-Oct-17 04:00N 51°07' E 001°24'714.6
2017-Oct-17 03:30N 51°03' E 001°34'715.0
2017-Oct-17 03:01N 50°59' E 001°43'5 9.7
2017-Oct-17 02:30N 50°58' E 001°51'0 0.0
2017-Oct-17 02:00N 50°58' E 001°51'0 0.0
2017-Oct-17 01:29N 50°58' E 001°51'0 0.0
2017-Oct-17 00:59N 50°58' E 001°51'0 0.0
2017-Oct-17 00:30N 50°58' E 001°51'0 1.0
2017-Oct-17 00:00N 50°58' E 001°52'0 0.0
2017-Oct-16 23:30N 50°58' E 001°52'0 0.0
2017-Oct-16 23:00N 50°58' E 001°52'0 0.0
2017-Oct-16 22:30N 50°58' E 001°52'0 0.0
2017-Oct-16 22:00N 50°58' E 001°52'0 0.3
2017-Oct-16 21:30N 50°58' E 001°52'0 0.8
2017-Oct-16 21:00N 50°58' E 001°51'510.3
2017-Oct-16 20:30N 50°58' E 001°43'918.2
2017-Oct-16 20:00N 51°02' E 001°30'816.5
2017-Oct-16 19:30N 51°07' E 001°20'0 0.1
2017-Oct-16 18:54N 51°07' E 001°20'2 4.0
2017-Oct-16 18:30N 51°07' E 001°22'917.3
2017-Oct-16 18:01N 51°04' E 001°35'917.5
2017-Oct-16 17:31N 50°58' E 001°46'3 6.5
2017-Oct-16 16:59N 50°58' E 001°51'0 0.0
2017-Oct-16 16:30N 50°58' E 001°51'4 7.7
2017-Oct-16 16:00N 50°58' E 001°45'816.8
2017-Oct-16 15:30N 51°01' E 001°33'917.8
2017-Oct-16 15:00N 51°06' E 001°21'1 1.5
2017-Oct-16 14:09N 51°07' E 001°20'5 8.0
2017-Oct-16 13:30N 51°06' E 001°28'918.3
2017-Oct-16 13:00N 51°01' E 001°40'714.8
2017-Oct-16 12:31N 50°58' E 001°51'1 1.1
2017-Oct-16 12:00N 50°58' E 001°52'0 0.2
2017-Oct-16 11:31N 50°58' E 001°51'815.8
2017-Oct-16 11:00N 50°58' E 001°39'917.8
2017-Oct-16 10:30N 51°03' E 001°27'6 6.3
2017-Oct-16 09:34N 51°07' E 001°20'0 0.0
2017-Oct-16 09:26N 51°07' E 001°20'3 8.1
2017-Oct-16 09:00N 51°07' E 001°25'917.9
2017-Oct-16 08:30N 51°02' E 001°37'816.1
2017-Oct-16 08:00N 50°58' E 001°49'1 2.8
2017-Oct-16 07:30N 50°58' E 001°51'0 0.1
2017-Oct-16 07:00N 50°58' E 001°51'715.1
2017-Oct-16 06:30N 50°59' E 001°39'816.6
2017-Oct-16 06:01N 51°04' E 001°28'6 3.8
2017-Oct-16 04:19N 51°07' E 001°20'411.4
2017-Oct-16 04:00N 51°06' E 001°25'816.5
2017-Oct-16 03:31N 51°01' E 001°36'714.9
2017-Oct-16 03:00N 50°58' E 001°46'3 6.1
2017-Oct-16 02:30N 50°58' E 001°51'0 0.0
2017-Oct-16 02:00N 50°58' E 001°51'0 0.0
2017-Oct-16 01:30N 50°58' E 001°51'3 5.6
2017-Oct-16 01:00N 50°58' E 001°47'915.9
2017-Oct-16 00:27N 51°02' E 001°34'817.8
2017-Oct-16 00:00N 51°06' E 001°24'3 4.6
2017-Oct-15 23:27N 51°07' E 001°20'0 0.4
2017-Oct-15 22:59N 51°07' E 001°20'715.5
2017-Oct-15 22:31N 51°04' E 001°31'917.8
2017-Oct-15 22:01N 50°59' E 001°43'510.8
2017-Oct-15 21:30N 50°58' E 001°51'0 0.0
2017-Oct-15 21:00N 50°58' E 001°51'0 0.1
2017-Oct-15 20:30N 50°58' E 001°51'815.9
2017-Oct-15 20:01N 50°59' E 001°39'917.8
2017-Oct-15 19:30N 51°04' E 001°26'5 9.2
2017-Oct-15 18:56N 51°07' E 001°20'0 0.1
2017-Oct-15 18:24N 51°07' E 001°20'512.2
2017-Oct-15 18:00N 51°06' E 001°27'917.2
2017-Oct-15 17:30N 51°01' E 001°39'815.6
2017-Oct-15 17:01N 50°58' E 001°50'0 0.8
2017-Oct-15 16:29N 50°58' E 001°51'0 0.8
2017-Oct-15 15:59N 50°58' E 001°51'815.7
2017-Oct-15 15:30N 50°59' E 001°39'816.5
2017-Oct-15 15:01N 51°04' E 001°28'6 5.4
2017-Oct-15 13:56N 51°07' E 001°20'4 9.6
2017-Oct-15 13:30N 51°06' E 001°26'816.3
2017-Oct-15 13:00N 51°01' E 001°37'815.6
2017-Oct-15 12:30N 50°58' E 001°48'2 3.7
2017-Oct-15 12:00N 50°58' E 001°51'1 1.5
2017-Oct-15 11:26N 50°59' E 001°50'816.8
2017-Oct-15 10:59N 50°59' E 001°38'816.2
2017-Oct-15 10:30N 51°04' E 001°28'6 8.2
2017-Oct-15 09:47N 51°07' E 001°20'0 0.3
2017-Oct-15 09:23N 51°07' E 001°20'513.8
2017-Oct-15 09:00N 51°07' E 001°29'816.9
2017-Oct-15 08:31N 51°03' E 001°40'714.5
2017-Oct-15 08:00N 50°58' E 001°49'1 2.1
2017-Oct-15 07:30N 50°58' E 001°51'0 0.4
2017-Oct-15 07:00N 50°58' E 001°51'714.2
2017-Oct-15 06:30N 50°59' E 001°40'816.2
2017-Oct-15 06:01N 51°03' E 001°29'713.5
2017-Oct-15 05:30N 51°07' E 001°20'0 0.0
2017-Oct-15 05:00N 51°07' E 001°20'0 0.0
2017-Oct-15 04:30N 51°07' E 001°20'0 0.0
2017-Oct-15 04:00N 51°07' E 001°20'510.3
2017-Oct-15 03:31N 51°05' E 001°28'918.8
2017-Oct-15 03:01N 51°00' E 001°40'714.9
2017-Oct-15 02:30N 50°58' E 001°51'0 0.1
2017-Oct-15 02:01N 50°58' E 001°51'0 0.0
2017-Oct-15 01:30N 50°58' E 001°51'3 6.0
2017-Oct-15 01:01N 50°58' E 001°47'815.5
2017-Oct-15 00:31N 50°60' E 001°35'815.9
2017-Oct-15 00:01N 51°05' E 001°26'4 6.6
2017-Oct-14 23:24N 51°07' E 001°20'0 0.1
2017-Oct-14 23:00N 51°07' E 001°20'612.6
2017-Oct-14 22:30N 51°05' E 001°29'816.7
2017-Oct-14 22:01N 51°01' E 001°41'713.7
2017-Oct-14 21:30N 50°58' E 001°51'0 0.1
2017-Oct-14 21:00N 50°58' E 001°51'1 1.3
2017-Oct-14 20:30N 50°58' E 001°50'918.1
2017-Oct-14 20:00N 51°00' E 001°36'918.7
2017-Oct-14 19:30N 51°06' E 001°24'3 5.6
2017-Oct-14 18:59N 51°07' E 001°20'2 3.3
2017-Oct-14 18:30N 51°07' E 001°22'918.3
2017-Oct-14 18:00N 51°02' E 001°35'917.4
2017-Oct-14 17:30N 50°58' E 001°47'2 4.6
2017-Oct-14 16:59N 50°58' E 001°51'0 0.0
2017-Oct-14 16:30N 50°58' E 001°51'612.2
2017-Oct-14 16:00N 50°58' E 001°41'816.6
2017-Oct-14 15:30N 51°02' E 001°29'8 5.6
2017-Oct-14 14:07N 51°07' E 001°20'1 9.8
2017-Oct-14 14:00N 51°07' E 001°22'917.4
2017-Oct-14 13:30N 51°03' E 001°34'918.5
2017-Oct-14 13:00N 50°58' E 001°47'3 6.4
2017-Oct-14 12:30N 50°58' E 001°52'0 0.0
2017-Oct-14 12:00N 50°58' E 001°52'2 3.7
2017-Oct-14 11:28N 50°58' E 001°49'816.3
2017-Oct-14 11:00N 51°00' E 001°37'918.2
2017-Oct-14 10:30N 51°05' E 001°25'4 5.8
2017-Oct-14 09:52N 51°07' E 001°20'0 0.0
2017-Oct-14 09:22N 51°07' E 001°20'411.1
2017-Oct-14 09:01N 51°07' E 001°26'917.4
2017-Oct-14 08:30N 51°02' E 001°38'816.1
2017-Oct-14 08:00N 50°58' E 001°49'1 2.3
2017-Oct-14 07:29N 50°58' E 001°51'0 0.2
2017-Oct-14 06:57N 50°58' E 001°51'716.3
2017-Oct-14 06:30N 50°59' E 001°39'816.7
2017-Oct-14 06:00N 51°03' E 001°28'710.0
2017-Oct-14 05:21N 51°07' E 001°20'0 0.0
2017-Oct-14 04:59N 51°07' E 001°20'0 0.2
2017-Oct-14 04:10N 51°07' E 001°20'211.0
2017-Oct-14 04:01N 51°07' E 001°23'917.6
2017-Oct-14 03:31N 51°02' E 001°35'816.5
2017-Oct-14 03:01N 50°58' E 001°46'3 5.2
2017-Oct-14 02:25N 50°58' E 001°51'0 0.0
2017-Oct-14 02:00N 50°58' E 001°51'0 0.0
2017-Oct-14 01:30N 50°58' E 001°51'611.8
2017-Oct-14 01:00N 50°58' E 001°42'815.6
2017-Oct-14 00:30N 51°03' E 001°32'714.2
2017-Oct-14 00:00N 51°07' E 001°22'2 2.9
2017-Oct-13 23:27N 51°07' E 001°20'0 0.4
2017-Oct-13 23:00N 51°07' E 001°20'816.5
2017-Oct-13 22:31N 51°04' E 001°32'917.4
2017-Oct-13 22:00N 50°59' E 001°43'5 7.3
2017-Oct-13 21:21N 50°58' E 001°51'0 0.0
2017-Oct-13 21:00N 50°58' E 001°51'2 4.0
2017-Oct-13 20:30N 50°58' E 001°48'918.6
2017-Oct-13 20:00N 51°00' E 001°33'917.8
2017-Oct-13 19:30N 51°06' E 001°23'2 3.9
2017-Oct-13 18:57N 51°07' E 001°20'1 3.2
2017-Oct-13 18:30N 51°07' E 001°22'816.4
2017-Oct-13 18:00N 51°04' E 001°34'917.3
2017-Oct-13 17:30N 50°58' E 001°45'4 8.5
2017-Oct-13 16:59N 50°58' E 001°52'0 0.0
2017-Oct-13 16:25N 50°58' E 001°52'3 7.2
2017-Oct-13 16:00N 50°58' E 001°47'918.5
2017-Oct-13 15:30N 51°02' E 001°33'918.1
2017-Oct-13 15:00N 51°06' E 001°21'1 2.0
2017-Oct-13 14:25N 51°07' E 001°20'0 0.3
2017-Oct-13 13:55N 51°07' E 001°20'614.4
2017-Oct-13 13:31N 51°05' E 001°29'918.2
2017-Oct-13 13:01N 50°60' E 001°41'711.5
2017-Oct-13 12:25N 50°58' E 001°51'0 0.0
2017-Oct-13 11:53N 50°58' E 001°51'1 3.8
2017-Oct-13 11:31N 50°58' E 001°49'816.4
2017-Oct-13 11:00N 50°60' E 001°36'918.0
2017-Oct-13 10:30N 51°05' E 001°24'3 2.9
2017-Oct-13 09:18N 51°07' E 001°20'413.6
2017-Oct-13 09:00N 51°06' E 001°26'816.8
2017-Oct-13 08:30N 51°02' E 001°38'816.2
2017-Oct-13 08:00N 50°58' E 001°49'1 2.1
2017-Oct-13 07:30N 50°58' E 001°51'0 0.0
2017-Oct-13 07:00N 50°58' E 001°51'510.0
2017-Oct-13 06:30N 50°58' E 001°43'1018.9
2017-Oct-13 06:00N 51°03' E 001°30'8 6.4
2017-Oct-13 04:49N 51°07' E 001°20'0 0.0
2017-Oct-13 04:30N 51°07' E 001°20'510.1
2017-Oct-13 04:00N 51°07' E 001°28'816.7
2017-Oct-13 03:30N 51°01' E 001°38'816.2
2017-Oct-13 03:01N 50°58' E 001°50'1 1.8
2017-Oct-13 02:31N 50°58' E 001°51'0 0.0
2017-Oct-13 02:01N 50°58' E 001°51'0 0.0
2017-Oct-13 01:31N 50°58' E 001°51'4 9.0
2017-Oct-13 01:00N 50°58' E 001°44'816.0
2017-Oct-13 00:30N 51°01' E 001°33'917.3
2017-Oct-13 00:00N 51°07' E 001°22'1 2.1
2017-Oct-12 23:26N 51°07' E 001°20'0 0.8
2017-Oct-12 23:00N 51°07' E 001°21'918.2
2017-Oct-12 22:30N 51°03' E 001°33'1019.2
2017-Oct-12 22:00N 50°58' E 001°46'3 5.2
2017-Oct-12 21:26N 50°58' E 001°51'0 0.0
2017-Oct-12 20:59N 50°58' E 001°51'613.0
2017-Oct-12 20:30N 50°58' E 001°41'918.6
2017-Oct-12 20:01N 51°04' E 001°30'7 8.1
2017-Oct-12 19:10N 51°07' E 001°20'0 0.0
2017-Oct-12 19:00N 51°07' E 001°20'2 4.8
2017-Oct-12 18:30N 51°07' E 001°24'917.8
2017-Oct-12 18:00N 51°03' E 001°36'816.9
2017-Oct-12 17:30N 50°58' E 001°48'3 4.9
2017-Oct-12 17:00N 50°58' E 001°52'0 0.0
2017-Oct-12 16:30N 50°58' E 001°52'713.1
2017-Oct-12 16:00N 50°59' E 001°41'918.0
2017-Oct-12 15:30N 51°04' E 001°29'710.3
2017-Oct-12 14:50N 51°07' E 001°20'0 0.0
2017-Oct-12 14:27N 51°07' E 001°20'0 0.5
2017-Oct-12 14:00N 51°07' E 001°20'815.5
2017-Oct-12 13:30N 51°04' E 001°31'918.4
2017-Oct-12 13:00N 50°59' E 001°43'5 8.2
2017-Oct-12 12:24N 50°58' E 001°51'0 0.0
2017-Oct-12 12:01N 50°58' E 001°51'2 3.4
2017-Oct-12 11:30N 50°58' E 001°48'816.2
2017-Oct-12 11:00N 50°59' E 001°36'918.2
2017-Oct-12 10:30N 51°05' E 001°25'4 5.0
2017-Oct-12 09:45N 51°07' E 001°20'0 0.0
2017-Oct-12 09:25N 51°07' E 001°20'4 9.3
2017-Oct-12 09:01N 51°06' E 001°26'917.8
2017-Oct-12 08:31N 51°01' E 001°38'816.6
2017-Oct-12 08:00N 50°58' E 001°50'1 1.5
2017-Oct-12 07:30N 50°58' E 001°51'0 0.7
2017-Oct-12 06:55N 50°58' E 001°50'614.7
2017-Oct-12 06:31N 50°59' E 001°41'918.4
2017-Oct-12 06:01N 51°04' E 001°29'7 4.4
2017-Oct-12 04:31N 51°07' E 001°20'611.7
2017-Oct-12 04:00N 51°05' E 001°29'816.7
2017-Oct-12 03:30N 51°01' E 001°40'714.2
2017-Oct-12 03:01N 50°58' E 001°50'0 0.9
2017-Oct-12 02:28N 50°58' E 001°51'0 0.3
2017-Oct-12 01:58N 50°58' E 001°51'817.5
2017-Oct-12 01:30N 50°58' E 001°38'917.9
2017-Oct-12 01:00N 51°04' E 001°27'610.0
2017-Oct-12 00:26N 51°07' E 001°20'0 0.0
2017-Oct-11 23:59N 51°07' E 001°20'5 9.6
2017-Oct-11 23:30N 51°06' E 001°27'917.3
2017-Oct-11 23:00N 51°01' E 001°38'816.3
2017-Oct-11 22:31N 50°58' E 001°50'0 0.8
2017-Oct-11 22:00N 50°58' E 001°51'0 0.0
2017-Oct-11 21:30N 50°58' E 001°51'612.9
2017-Oct-11 21:00N 50°58' E 001°41'917.4
2017-Oct-11 20:30N 51°02' E 001°28'714.0
2017-Oct-11 19:59N 51°07' E 001°20'0 0.0
2017-Oct-11 19:16N 51°07' E 001°20'2 5.6
2017-Oct-11 19:00N 51°07' E 001°22'816.9
2017-Oct-11 18:30N 51°03' E 001°34'917.3
2017-Oct-11 18:01N 50°58' E 001°45'4 5.9
2017-Oct-11 17:24N 50°58' E 001°51'0 0.0
2017-Oct-11 16:59N 50°58' E 001°51'0 0.0
2017-Oct-11 00:00N 50°58' E 001°51'0 0.0
2017-Oct-10 23:30N 50°58' E 001°51'0 0.0
2017-Oct-10 23:00N 50°58' E 001°51'0 0.0
2017-Oct-10 22:26N 50°58' E 001°51'2 5.0
2017-Oct-10 22:00N 50°58' E 001°48'815.9
2017-Oct-10 21:31N 50°59' E 001°35'917.9
2017-Oct-10 21:00N 51°05' E 001°24'3 3.4
2017-Oct-10 19:58N 51°07' E 001°20'  

Dump ship's entire track history